Time;durP1;ratioP1;P1;durP2;ratioP2;P2;SDS_P1;SDS_P2;PMS_P1;PMS_P2;Temp;Humidity;BMP_temperature;BMP_pressure;BME280_temperature;BME280_humidity;BME280_pressure;Samples;Min_cycle;Max_cycle;Signal;HPM_P1;HPM_P2
2022/12/02 00:00:19;;;;;;;26.43;22.27;;;7.60;56.40;;;;;;20748;6833;119152;-77
2022/12/02 00:02:45;;;;;;;31.60;26.02;;;7.50;56.40;;;;;;20571;6834;338485;-76
2022/12/02 00:05:10;;;;;;;31.03;26.00;;;7.60;56.30;;;;;;20579;6834;277135;-76
2022/12/02 00:07:36;;;;;;;33.00;27.10;;;7.90;55.80;;;;;;20488;6834;288469;-77
2022/12/02 00:10:02;;;;;;;32.03;27.15;;;8.10;55.40;;;;;;20554;6834;307851;-77
2022/12/02 00:12:28;;;;;;;32.03;27.23;;;8.40;54.80;;;;;;20487;6834;307073;-76
2022/12/02 00:15:00;;;;;;;30.20;26.73;;;8.40;54.80;;;;;;20563;6834;336122;-78
2022/12/02 00:17:26;;;;;;;29.55;25.88;;;8.50;54.40;;;;;;20473;6834;277381;-76
2022/12/02 00:19:52;;;;;;;29.77;26.03;;;8.60;53.90;;;;;;20547;6834;307363;-78
2022/12/02 00:22:18;;;;;;;28.23;22.50;;;8.60;53.90;;;;;;20777;6834;117595;-77
2022/12/02 00:24:43;;;;;;;28.33;20.47;;;8.30;54.30;;;;;;20781;6834;117910;-79
2022/12/02 00:27:09;;;;;;;30.92;25.48;;;7.90;55.00;;;;;;20584;6834;340654;-77
2022/12/02 00:29:34;;;;;;;31.27;26.50;;;7.90;55.30;;;;;;20586;6834;307097;-77
2022/12/02 00:32:01;;;;;;;29.37;22.87;;;8.10;55.30;;;;;;20751;6834;117822;-77
2022/12/02 00:34:27;;;;;;;31.73;21.87;;;7.90;55.30;;;;;;20784;6834;117424;-76
2022/12/02 00:36:53;;;;;;;27.53;24.03;;;7.60;55.90;;;;;;20561;6832;277462;-77
2022/12/02 00:39:18;;;;;;;29.45;25.65;;;7.70;56.10;;;;;;20579;6833;311505;-76
2022/12/02 00:41:44;;;;;;;33.08;27.05;;;7.90;56.00;;;;;;20560;6833;336417;-77
2022/12/02 00:46:56;;;;;;;26.10;20.43;;;8.00;55.40;;;;;;20789;6833;117902;-77
2022/12/02 00:49:21;;;;;;;32.72;25.55;;;7.70;56.10;;;;;;20570;6833;306642;-77
2022/12/02 00:51:48;;;;;;;30.13;21.97;;;7.50;56.60;;;;;;20786;6833;118505;-82
2022/12/02 00:54:13;;;;;;;32.30;25.98;;;7.50;56.30;;;;;;20553;6833;336694;-77
2022/12/02 00:56:39;;;;;;;33.40;27.50;;;7.60;55.80;;;;;;20569;6833;307671;-77
2022/12/02 00:59:04;;;;;;;30.40;22.75;;;7.80;55.50;;;;;;20785;6833;117689;-77
2022/12/02 01:01:30;;;;;;;31.95;26.15;;;7.70;55.60;;;;;;20574;6833;308242;-77
2022/12/02 01:03:56;;;;;;;30.13;26.50;;;7.70;55.60;;;;;;20549;6833;307757;-77
2022/12/02 01:06:21;;;;;;;31.20;27.00;;;7.90;55.40;;;;;;20576;6833;307186;-77
2022/12/02 01:08:47;;;;;;;28.23;21.98;;;8.10;55.20;;;;;;20795;6833;117724;-77
2022/12/02 01:11:12;;;;;;;28.27;21.03;;;7.90;55.30;;;;;;20790;6833;117242;-77
2022/12/02 01:13:38;;;;;;;32.38;26.08;;;7.60;56.00;;;;;;20578;6834;341804;-77
2022/12/02 01:16:04;;;;;;;31.23;26.80;;;7.90;55.60;;;;;;20554;6834;308041;-76
2022/12/02 01:18:30;;;;;;;31.92;27.08;;;7.80;55.50;;;;;;20569;6834;342275;-77
2022/12/02 01:20:55;;;;;;;30.00;22.27;;;8.00;54.80;;;;;;20788;6834;117440;-76
2022/12/02 01:23:21;;;;;;;27.67;21.33;;;7.90;55.00;;;;;;20785;6834;118188;-77
2022/12/02 01:25:47;;;;;;;27.45;21.00;;;7.60;55.80;;;;;;20790;6834;117252;-78
2022/12/02 01:28:12;;;;;;;27.97;21.40;;;7.30;56.30;;;;;;20765;6834;119075;-75
2022/12/02 01:30:38;;;;;;;28.90;24.63;;;7.10;56.80;;;;;;20565;6834;336765;-75
2022/12/02 01:33:03;;;;;;;30.23;26.90;;;7.20;57.10;;;;;;20578;6834;280353;-75
2022/12/02 01:35:31;;;;;;;31.57;26.17;;;7.80;56.20;;;;;;20568;6834;281310;-79
2022/12/02 01:37:57;;;;;;;32.87;26.97;;;7.80;56.20;;;;;;20560;6834;277500;-75
2022/12/02 01:40:22;;;;;;;29.13;21.83;;;8.00;55.30;;;;;;20790;6834;117481;-75
2022/12/02 01:42:48;;;;;;;26.87;20.73;;;7.90;55.50;;;;;;20785;6834;117769;-77
2022/12/02 01:45:13;;;;;;;33.27;27.00;;;7.60;56.10;;;;;;20574;6834;277739;-75
2022/12/02 01:47:39;;;;;;;29.75;22.40;;;7.60;56.10;;;;;;20767;6832;117831;-75
2022/12/02 01:50:06;;;;;;;30.67;26.05;;;7.60;56.30;;;;;;20537;6833;342477;-76
2022/12/02 01:52:31;;;;;;;30.67;26.60;;;7.60;56.30;;;;;;20575;6833;307354;-75
2022/12/02 01:54:57;;;;;;;28.00;21.93;;;7.90;55.60;;;;;;20765;6833;117201;-74
2022/12/02 01:57:22;;;;;;;27.77;20.93;;;7.80;55.70;;;;;;20792;6833;117320;-75
2022/12/02 01:59:48;;;;;;;33.88;26.65;;;7.50;56.30;;;;;;20555;6833;339407;-75
2022/12/02 02:02:26;;;;;;;28.17;21.90;;;7.60;56.40;;;;;;20769;6833;117280;-75
2022/12/02 02:04:55;;;;;;;31.48;26.23;;;7.50;56.40;;;;;;20557;6833;280660;-76
2022/12/02 02:07:22;;;;;;;34.15;28.40;;;7.60;56.50;;;;;;20565;6833;298831;-76
2022/12/02 02:09:49;;;;;;;33.25;27.02;;;8.10;55.60;;;;;;20576;6833;336801;-76
2022/12/02 02:12:15;;;;;;;31.63;23.97;;;8.00;55.20;;;;;;20759;6833;117946;-77
2022/12/02 02:14:41;;;;;;;35.83;28.73;;;7.90;55.40;;;;;;20575;6833;337025;-76
2022/12/02 02:17:07;;;;;;;32.83;24.45;;;7.80;55.50;;;;;;20786;6833;117373;-76
2022/12/02 02:19:32;;;;;;;34.03;28.17;;;7.70;55.80;;;;;;20576;6833;277596;-76
2022/12/02 02:21:58;;;;;;;34.80;25.03;;;7.70;55.80;;;;;;20775;6833;127545;-77
2022/12/02 02:24:23;;;;;;;37.73;23.80;;;7.60;55.90;;;;;;20786;6833;117532;-76
2022/12/02 02:26:49;;;;;;;36.73;29.07;;;7.30;56.40;;;;;;20587;6834;304023;-76
2022/12/02 02:29:14;;;;;;;37.45;25.02;;;7.40;56.60;;;;;;20793;6834;119907;-76
2022/12/02 02:31:41;;;;;;;29.95;22.52;;;7.10;57.20;;;;;;20785;6834;121437;-77
2022/12/02 02:34:06;;;;;;;34.73;23.20;;;7.10;57.20;;;;;;20764;6834;117386;-76
2022/12/02 02:36:32;;;;;;;36.15;27.55;;;6.90;57.70;;;;;;20563;6834;309291;-76
2022/12/02 02:38:58;;;;;;;36.10;25.27;;;7.10;58.70;;;;;;20782;6834;121911;-78
2022/12/02 02:41:23;;;;;;;31.57;22.63;;;7.10;57.90;;;;;;20779;6834;118897;-76
2022/12/02 02:43:49;;;;;;;34.20;23.10;;;7.00;58.30;;;;;;20797;6834;117406;-76
2022/12/02 02:46:14;;;;;;;37.25;28.83;;;6.80;58.50;;;;;;20553;6834;337272;-76
2022/12/02 02:48:40;;;;;;;39.38;29.35;;;6.90;58.60;;;;;;20575;6834;341165;-76
2022/12/02 02:51:06;;;;;;;32.58;24.23;;;7.30;57.80;;;;;;20788;6834;117602;-77
2022/12/02 02:53:32;;;;;;;36.10;23.43;;;7.30;58.30;;;;;;20766;6834;117263;-76
2022/12/02 02:55:57;;;;;;;35.95;28.25;;;7.10;58.20;;;;;;20554;6834;279543;-77
2022/12/02 02:58:23;;;;;;;38.17;29.93;;;7.20;58.10;;;;;;20571;6832;279977;-76
2022/12/02 03:00:53;;;;;;;40.90;30.73;;;7.50;57.50;;;;;;20568;6833;280336;-75
2022/12/02 03:03:19;;;;;;;36.47;24.73;;;7.70;57.00;;;;;;20786;6833;117628;-77
2022/12/02 03:05:44;;;;;;;37.60;29.33;;;7.60;57.00;;;;;;20561;6833;307597;-76
2022/12/02 03:08:10;;;;;;;35.70;24.70;;;7.60;57.10;;;;;;20764;6833;121156;-76
2022/12/02 03:10:35;;;;;;;33.97;23.47;;;7.50;57.20;;;;;;20782;6833;117628;-76
2022/12/02 03:13:01;;;;;;;36.87;28.70;;;7.30;57.70;;;;;;20571;6833;309693;-76
2022/12/02 03:15:27;;;;;;;35.03;25.07;;;7.30;57.80;;;;;;20789;6833;117873;-75
2022/12/02 03:17:52;;;;;;;39.57;29.47;;;7.30;57.90;;;;;;20537;6833;278196;-76
2022/12/02 03:20:18;;;;;;;32.90;24.27;;;7.40;57.60;;;;;;20786;6833;117473;-75
2022/12/02 03:22:43;;;;;;;35.45;28.38;;;7.30;57.70;;;;;;20567;6833;308846;-76
2022/12/02 03:25:09;;;;;;;38.17;25.20;;;7.50;57.70;;;;;;20788;6833;118316;-75
2022/12/02 03:27:34;;;;;;;33.30;23.03;;;7.40;57.60;;;;;;20777;6833;119302;-76
2022/12/02 03:30:00;;;;;;;38.97;29.03;;;7.20;58.00;;;;;;20561;6833;309338;-75
2022/12/02 03:32:26;;;;;;;39.65;30.62;;;7.30;58.00;;;;;;20578;6833;307103;-79
2022/12/02 03:34:51;;;;;;;39.50;30.10;;;7.60;57.70;;;;;;20579;6833;307560;-76
2022/12/02 03:37:17;;;;;;;34.67;24.48;;;7.80;56.80;;;;;;20792;6834;119025;-76
2022/12/02 03:39:42;;;;;;;36.70;24.80;;;7.70;56.80;;;;;;20777;6834;117769;-75
2022/12/02 03:42:09;;;;;;;36.20;23.23;;;7.10;58.10;;;;;;20763;6834;118203;-78
2022/12/02 03:44:34;;;;;;;39.43;29.40;;;7.10;58.10;;;;;;20548;6834;278439;-75
2022/12/02 03:47:00;;;;;;;38.40;25.27;;;7.20;58.20;;;;;;20783;6834;117604;-76
2022/12/02 03:49:25;;;;;;;37.17;23.42;;;7.20;58.10;;;;;;20778;6834;117918;-75
2022/12/02 03:51:51;;;;;;;39.05;29.37;;;7.00;58.50;;;;;;20554;6834;308309;-76
2022/12/02 03:54:17;;;;;;;34.17;24.27;;;7.10;58.80;;;;;;20782;6834;117855;-75
2022/12/02 03:56:43;;;;;;;36.85;23.62;;;6.90;58.80;;;;;;20783;6834;118209;-75
2022/12/02 03:59:08;;;;;;;40.37;30.07;;;6.90;58.70;;;;;;20569;6834;318748;-75
2022/12/02 04:01:35;;;;;;;40.27;30.30;;;7.30;58.10;;;;;;20566;6834;277265;-76
2022/12/02 04:04:00;;;;;;;37.50;23.97;;;7.30;58.10;;;;;;20763;6834;117756;-77
2022/12/02 04:06:26;;;;;;;32.40;22.90;;;7.30;58.00;;;;;;20748;6834;118214;-75
2022/12/02 04:08:53;;;;;;;37.90;24.47;;;7.00;58.40;;;;;;20772;6834;117267;-75
2022/12/02 04:11:18;;;;;;;41.42;30.50;;;6.80;59.00;;;;;;20574;6832;278133;-75
2022/12/02 04:13:45;;;;;;;34.83;24.03;;;6.90;59.20;;;;;;20774;6833;118486;-76
2022/12/02 04:16:10;;;;;;;40.10;23.80;;;6.90;58.80;;;;;;20764;6833;119652;-76
2022/12/02 04:18:37;;;;;;;42.42;30.10;;;6.90;59.40;;;;;;20573;6833;307653;-76
2022/12/02 04:21:02;;;;;;;37.87;24.77;;;6.90;59.30;;;;;;20767;6833;117268;-74
2022/12/02 04:23:28;;;;;;;43.80;31.37;;;6.90;59.00;;;;;;20567;6833;305995;-74
2022/12/02 04:25:53;;;;;;;35.23;25.10;;;7.00;59.10;;;;;;20771;6833;148597;-75
2022/12/02 04:28:19;;;;;;;43.42;29.98;;;6.90;58.80;;;;;;20578;6833;306934;-74
2022/12/02 04:30:45;;;;;;;34.28;24.75;;;7.00;58.70;;;;;;20752;6833;118053;-74
2022/12/02 04:33:10;;;;;;;39.60;29.17;;;7.00;58.70;;;;;;20577;6833;309115;-75
2022/12/02 04:35:36;;;;;;;38.40;29.52;;;7.10;59.00;;;;;;20519;6833;279388;-74
2022/12/02 04:38:01;;;;;;;39.50;30.48;;;7.30;58.20;;;;;;20556;6833;307720;-77
2022/12/02 04:40:28;;;;;;;36.85;25.33;;;7.40;57.30;;;;;;20786;6833;121056;-74
2022/12/02 04:42:55;;;;;;;34.43;23.83;;;7.40;57.30;;;;;;20783;6833;118677;-75
2022/12/02 04:45:22;;;;;;;38.10;28.60;;;7.10;58.00;;;;;;20563;6833;308322;-74
2022/12/02 04:47:47;;;;;;;32.97;23.20;;;7.10;58.70;;;;;;20785;6834;117265;-74
2022/12/02 04:50:13;;;;;;;34.35;22.75;;;7.00;58.10;;;;;;20710;6834;121490;-75
2022/12/02 04:52:39;;;;;;;32.00;21.92;;;6.70;59.30;;;;;;20763;6834;117355;-73
2022/12/02 04:55:05;;;;;;;36.83;27.77;;;6.70;59.30;;;;;;20771;6834;118067;-74
2022/12/02 04:57:30;;;;;;;38.93;28.40;;;6.50;59.70;;;;;;20550;6834;310174;-76
2022/12/02 04:59:56;;;;;;;35.45;25.20;;;6.70;59.90;;;;;;20746;6834;118515;-75
2022/12/02 05:02:22;;;;;;;36.57;28.57;;;6.80;59.60;;;;;;20544;6834;309356;-75
2022/12/02 05:04:47;;;;;;;37.70;29.37;;;6.90;59.10;;;;;;20563;6834;282026;-75
2022/12/02 05:07:13;;;;;;;43.75;33.15;;;7.30;58.30;;;;;;20779;6834;117262;-73
2022/12/02 05:09:38;;;;;;;44.40;38.17;;;7.20;58.10;;;;;;20564;6834;307748;-73
2022/12/02 05:12:04;;;;;;;34.33;25.13;;;7.30;58.00;;;;;;20745;6834;118537;-74
2022/12/02 05:14:30;;;;;;;37.38;30.58;;;7.20;58.10;;;;;;20572;6834;310579;-74
2022/12/02 05:16:55;;;;;;;33.97;24.23;;;7.30;58.00;;;;;;20778;6834;117845;-74
2022/12/02 05:19:21;;;;;;;35.70;23.60;;;7.30;58.20;;;;;;20780;6834;117394;-74
2022/12/02 05:21:46;;;;;;;35.42;28.10;;;7.00;58.60;;;;;;20576;6832;307294;-76
2022/12/02 05:24:12;;;;;;;32.03;24.00;;;7.20;58.80;;;;;;20778;6833;121608;-75
2022/12/02 05:26:39;;;;;;;32.77;23.10;;;7.10;58.60;;;;;;20787;6833;117701;-77
2022/12/02 05:29:05;;;;;;;37.10;28.65;;;6.90;58.80;;;;;;20559;6833;339235;-74
2022/12/02 05:31:30;;;;;;;35.85;28.95;;;7.10;59.00;;;;;;20572;6833;278120;-75
2022/12/02 05:33:55;;;;;;;31.62;24.52;;;7.30;58.40;;;;;;20761;6833;117917;-74
2022/12/02 05:36:24;;;;;;;31.93;23.73;;;7.30;58.20;;;;;;20780;6833;117606;-75
2022/12/02 05:38:50;;;;;;;31.63;22.97;;;7.10;58.70;;;;;;20792;6833;117705;-73
2022/12/02 05:41:15;;;;;;;32.90;22.47;;;6.90;59.30;;;;;;20772;6833;117594;-74
2022/12/02 05:43:42;;;;;;;33.37;23.47;;;6.70;59.80;;;;;;20792;6833;118992;-78
2022/12/02 05:46:11;;;;;;;28.97;22.03;;;6.60;60.00;;;;;;20762;6833;118294;-75
2022/12/02 05:48:36;;;;;;;39.77;29.23;;;6.50;60.30;;;;;;20590;6833;278295;-76
2022/12/02 05:51:03;;;;;;;40.28;29.42;;;6.70;59.70;;;;;;20610;6833;307654;-74
2022/12/02 05:53:29;;;;;;;37.33;26.40;;;7.00;59.70;;;;;;20780;6833;117314;-74
2022/12/02 05:55:55;;;;;;;36.97;24.20;;;7.10;59.10;;;;;;20785;6833;117397;-77
2022/12/02 05:58:20;;;;;;;41.83;30.30;;;6.90;59.40;;;;;;20576;6833;336737;-75
2022/12/02 06:00:52;;;;;;;41.10;25.27;;;7.00;59.70;;;;;;20801;6834;117699;-76
2022/12/02 06:03:18;;;;;;;33.77;24.10;;;6.70;59.80;;;;;;20790;6834;116889;-77
2022/12/02 06:05:44;;;;;;;33.83;23.20;;;6.70;59.80;;;;;;20792;6834;117830;-76
2022/12/02 06:08:09;;;;;;;34.53;22.97;;;6.50;60.20;;;;;;20780;6834;124000;-75
2022/12/02 06:10:35;;;;;;;33.63;23.12;;;6.40;60.50;;;;;;20818;6834;117660;-78
2022/12/02 06:13:15;;;;;;;38.90;29.33;;;6.30;60.70;;;;;;20595;6834;336570;-78
2022/12/02 06:15:40;;;;;;;33.87;24.23;;;6.50;60.90;;;;;;20716;6834;117371;-77
2022/12/02 06:18:13;;;;;;;42.50;30.42;;;6.50;60.70;;;;;;20549;6834;307945;-74
2022/12/02 06:20:40;;;;;;;36.47;25.13;;;6.70;60.00;;;;;;20778;6834;116466;-75
2022/12/02 06:23:06;;;;;;;41.70;31.10;;;6.70;59.90;;;;;;20549;6834;308982;-74
2022/12/02 06:25:32;;;;;;;38.43;25.17;;;6.90;59.80;;;;;;20772;6834;118634;-74
2022/12/02 06:28:00;;;;;;;36.90;24.10;;;6.90;59.70;;;;;;20768;6834;117849;-74
2022/12/02 06:30:27;;;;;;;36.30;22.93;;;6.50;60.60;;;;;;20742;6834;118730;-73
2022/12/02 06:32:53;;;;;;;42.38;30.02;;;6.70;60.20;;;;;;20568;6831;308160;-72
2022/12/02 06:35:25;;;;;;;50.10;37.63;;;6.60;60.20;;;;;;20540;6833;336816;-74
2022/12/02 06:37:56;;;;;;;40.45;30.40;;;7.30;58.50;;;;;;20561;6833;278118;-74
2022/12/02 06:40:22;;;;;;;40.08;30.60;;;7.60;58.10;;;;;;20437;6833;277794;-71
2022/12/02 06:42:48;;;;;;;34.43;24.27;;;7.50;57.90;;;;;;20781;6833;117718;-71
2022/12/02 06:45:23;;;;;;;40.87;29.70;;;7.40;58.00;;;;;;20580;6833;281102;-71
2022/12/02 06:47:59;;;;;;;38.75;29.23;;;7.50;58.10;;;;;;20571;6833;277645;-72
2022/12/02 06:50:25;;;;;;;36.60;28.80;;;7.70;57.20;;;;;;20573;6833;307699;-72
2022/12/02 06:52:50;;;;;;;38.90;29.37;;;7.80;56.50;;;;;;20557;6833;280883;-73
2022/12/02 06:55:29;;;;;;;38.83;29.33;;;8.00;55.80;;;;;;20575;6833;307646;-72
2022/12/02 06:57:55;;;;;;;35.87;25.57;;;8.10;55.80;;;;;;20746;6833;117697;-73
2022/12/02 07:00:20;;;;;;;40.45;29.55;;;7.80;56.90;;;;;;20575;6833;308067;-73
2022/12/02 07:02:47;;;;;;;34.43;23.60;;;7.50;56.60;;;;;;20799;6833;117775;-72
2022/12/02 07:05:16;;;;;;;33.87;22.83;;;7.50;56.60;;;;;;20781;6833;117862;-72
2022/12/02 07:07:41;;;;;;;33.50;27.93;;;7.20;57.30;;;;;;20551;6833;310856;-72
2022/12/02 07:10:07;;;;;;;39.07;25.33;;;7.20;58.00;;;;;;20767;6833;147564;-73
2022/12/02 07:12:36;;;;;;;37.63;29.23;;;7.20;58.00;;;;;;20545;6834;310720;-73
2022/12/02 07:15:08;;;;;;;36.10;23.50;;;7.30;58.10;;;;;;20780;6834;117953;-73
2022/12/02 07:17:34;;;;;;;35.93;23.73;;;7.30;58.10;;;;;;20634;6834;117392;-72
2022/12/02 07:20:06;;;;;;;37.20;29.30;;;7.10;58.60;;;;;;20554;6834;278434;-72
2022/12/02 07:22:52;;;;;;;39.33;29.73;;;7.50;58.10;;;;;;20556;6834;278792;-72
2022/12/02 07:25:41;;;;;;;36.42;28.67;;;7.40;58.10;;;;;;20576;6834;278502;-71
2022/12/02 07:28:26;;;;;;;31.87;23.27;;;7.70;57.30;;;;;;20769;6834;117358;-72
2022/12/02 07:30:59;;;;;;;31.93;23.57;;;7.60;57.40;;;;;;20787;6834;118401;-72
2022/12/02 07:33:25;;;;;;;32.90;23.20;;;7.00;58.70;;;;;;20785;6834;119812;-72
2022/12/02 07:35:50;;;;;;;37.37;28.60;;;7.00;58.80;;;;;;20571;6834;309334;-71
2022/12/02 07:38:17;;;;;;;33.43;25.47;;;7.10;58.80;;;;;;20751;6834;118207;-72
2022/12/02 07:40:42;;;;;;;32.60;23.47;;;7.10;58.80;;;;;;20793;6834;117397;-72
2022/12/02 07:43:08;;;;;;;38.05;29.87;;;6.90;59.20;;;;;;20572;6834;305672;-72
2022/12/02 07:45:34;;;;;;;38.30;24.97;;;7.10;59.20;;;;;;20792;6832;117311;-72
2022/12/02 07:48:00;;;;;;;34.07;24.80;;;7.10;59.20;;;;;;20776;6833;118502;-73
2022/12/02 07:50:25;;;;;;;33.73;23.77;;;6.90;59.40;;;;;;20795;6833;118259;-73
2022/12/02 07:52:51;;;;;;;34.60;22.87;;;6.80;59.80;;;;;;20792;6833;117239;-71
2022/12/02 07:55:16;;;;;;;36.13;27.70;;;6.60;60.00;;;;;;20576;6833;306864;-73
2022/12/02 07:57:43;;;;;;;33.77;22.60;;;6.80;60.10;;;;;;20793;6833;117710;-71
2022/12/02 08:00:09;;;;;;;43.17;32.40;;;6.80;60.10;;;;;;20560;6833;309680;-72
2022/12/02 08:02:34;;;;;;;38.03;25.17;;;7.00;60.10;;;;;;20787;6833;117965;-72
2022/12/02 08:05:00;;;;;;;35.38;24.60;;;6.90;60.10;;;;;;20792;6833;118451;-73
2022/12/02 08:07:26;;;;;;;35.07;23.37;;;6.90;60.10;;;;;;20788;6833;117563;-72
2022/12/02 08:09:51;;;;;;;30.75;21.33;;;6.80;60.50;;;;;;20780;6833;117724;-73
2022/12/02 08:12:18;;;;;;;37.25;23.45;;;6.50;61.00;;;;;;20792;6833;117996;-72
2022/12/02 08:14:45;;;;;;;41.22;29.58;;;6.50;61.00;;;;;;20580;6833;309139;-73
2022/12/02 08:17:11;;;;;;;42.30;31.13;;;7.10;60.00;;;;;;20577;6833;333292;-73
2022/12/02 08:19:37;;;;;;;35.70;25.40;;;7.10;60.00;;;;;;20781;6833;117418;-72
2022/12/02 08:22:02;;;;;;;38.77;23.60;;;7.10;59.70;;;;;;20771;6833;117304;-72
2022/12/02 08:24:28;;;;;;;35.17;23.27;;;6.90;60.10;;;;;;20797;6834;119217;-72
2022/12/02 08:26:53;;;;;;;43.33;29.42;;;6.80;60.50;;;;;;20575;6834;337048;-72
2022/12/02 08:29:19;;;;;;;42.00;30.20;;;6.90;60.30;;;;;;20584;6834;278644;-72
2022/12/02 08:31:44;;;;;;;35.07;23.83;;;7.20;59.50;;;;;;20790;6834;118575;-72
2022/12/02 08:34:10;;;;;;;39.03;24.05;;;7.20;59.40;;;;;;20778;6834;118324;-72
2022/12/02 08:36:36;;;;;;;43.50;29.83;;;7.00;59.90;;;;;;20587;6834;337212;-72
2022/12/02 08:39:04;;;;;;;35.97;23.90;;;7.10;60.60;;;;;;20798;6834;117350;-73
2022/12/02 08:41:27;;;;;;;43.58;29.80;;;7.00;60.00;;;;;;20576;6834;337075;-72
2022/12/02 08:43:52;;;;;;;38.40;23.93;;;7.20;59.80;;;;;;20777;6834;118541;-72
2022/12/02 08:46:19;;;;;;;33.58;22.48;;;6.90;59.90;;;;;;20794;6834;119734;-72
2022/12/02 08:48:44;;;;;;;36.77;26.93;;;6.90;60.40;;;;;;20579;6834;278478;-71
2022/12/02 08:51:10;;;;;;;39.43;29.43;;;7.00;60.10;;;;;;20582;6834;278028;-71
2022/12/02 08:53:36;;;;;;;41.87;30.93;;;7.50;58.50;;;;;;20583;6834;279227;-71
2022/12/02 08:56:02;;;;;;;35.83;23.73;;;7.50;58.50;;;;;;20773;6832;117634;-71
2022/12/02 08:58:27;;;;;;;41.07;29.77;;;7.40;58.40;;;;;;20587;6833;277291;-71
2022/12/02 09:00:53;;;;;;;35.27;22.97;;;7.40;58.50;;;;;;20795;6833;119321;-72
2022/12/02 09:03:18;;;;;;;39.97;28.83;;;7.30;58.50;;;;;;20572;6833;280154;-73
2022/12/02 09:05:45;;;;;;;36.93;24.60;;;7.20;59.50;;;;;;20789;6833;117469;-76
2022/12/02 09:08:10;;;;;;;39.57;29.47;;;7.20;58.90;;;;;;20564;6833;406772;-75
2022/12/02 09:10:36;;;;;;;35.20;23.90;;;7.30;59.00;;;;;;20801;6833;121408;-74
2022/12/02 09:13:01;;;;;;;32.17;22.40;;;7.30;59.20;;;;;;20788;6833;117645;-76
2022/12/02 09:15:27;;;;;;;33.10;22.87;;;7.10;59.60;;;;;;20788;6833;117797;-73
2022/12/02 09:17:52;;;;;;;30.80;20.63;;;6.90;60.10;;;;;;20774;6833;119031;-74
2022/12/02 09:20:18;;;;;;;37.08;28.77;;;6.70;60.60;;;;;;20568;6833;335857;-71
2022/12/02 09:22:47;;;;;;;33.73;23.10;;;6.90;60.50;;;;;;20792;6833;117274;-72
2022/12/02 09:25:14;;;;;;;38.88;31.02;;;6.90;60.20;;;;;;20573;6833;336807;-72
2022/12/02 09:27:39;;;;;;;41.23;34.10;;;7.10;60.30;;;;;;20581;6833;309205;-71
2022/12/02 09:30:06;;;;;;;36.20;25.27;;;7.40;59.10;;;;;;20780;6833;127214;-71
2022/12/02 09:32:32;;;;;;;37.97;25.83;;;7.40;59.10;;;;;;20775;6833;117832;-71
2022/12/02 09:34:57;;;;;;;32.43;20.93;;;7.30;59.70;;;;;;20769;6834;117752;-73
2022/12/02 09:37:23;;;;;;;29.47;24.57;;;7.10;60.20;;;;;;20586;6834;311273;-71
2022/12/02 09:39:48;;;;;;;27.67;22.83;;;7.20;60.10;;;;;;20584;6834;280974;-72
2022/12/02 09:42:14;;;;;;;28.48;24.63;;;7.60;59.20;;;;;;20561;6834;301345;-71
2022/12/02 09:44:40;;;;;;;25.43;20.47;;;7.80;58.30;;;;;;20785;6834;117318;-71
2022/12/02 09:47:07;;;;;;;26.37;19.80;;;7.60;58.90;;;;;;20788;6834;117280;-71
2022/12/02 09:49:32;;;;;;;25.48;22.62;;;7.60;58.90;;;;;;20549;6834;307408;-70
2022/12/02 09:51:58;;;;;;;20.00;17.90;;;7.80;58.80;;;;;;20565;6834;303936;-71
2022/12/02 09:54:23;;;;;;;20.58;17.08;;;8.10;58.10;;;;;;20795;6834;117509;-70
2022/12/02 09:56:49;;;;;;;20.87;18.77;;;8.10;58.20;;;;;;20597;6834;281270;-71
2022/12/02 09:59:14;;;;;;;18.93;17.13;;;8.20;57.60;;;;;;20591;6834;307218;-71
2022/12/02 10:01:43;;;;;;;19.67;17.67;;;8.50;57.30;;;;;;20592;6834;278561;-71
2022/12/02 10:04:08;;;;;;;17.30;15.50;;;8.70;56.20;;;;;;20778;6834;118310;-71
2022/12/02 10:06:34;;;;;;;17.03;14.73;;;8.60;56.40;;;;;;20798;6834;118608;-70
2022/12/02 10:09:05;;;;;;;21.00;18.33;;;8.40;57.00;;;;;;20602;6832;329323;-74
2022/12/02 10:11:31;;;;;;;18.98;17.08;;;8.50;57.10;;;;;;20588;6833;336579;-77
2022/12/02 10:13:55;;;;;;;20.20;16.80;;;8.70;56.50;;;;;;20762;6833;118598;-76
2022/12/02 10:16:21;;;;;;;16.43;14.10;;;8.70;56.40;;;;;;20766;6833;119488;-78
2022/12/02 10:18:47;;;;;;;18.17;14.10;;;8.20;57.10;;;;;;20779;6833;118361;-74
2022/12/02 10:21:13;;;;;;;18.27;16.43;;;8.20;57.10;;;;;;20568;6833;311481;-76
2022/12/02 10:23:55;;;;;;;21.10;18.90;;;8.30;56.70;;;;;;20578;6833;279607;-74
2022/12/02 10:26:20;;;;;;;28.73;25.57;;;8.60;55.70;;;;;;20546;6833;303689;-73
2022/12/02 10:29:00;;;;;;;16.37;14.43;;;8.70;55.00;;;;;;20776;6833;117359;-72
2022/12/02 10:31:26;;;;;;;20.57;18.40;;;8.70;55.10;;;;;;20513;6833;307266;-72
2022/12/02 10:34:01;;;;;;;16.00;14.30;;;8.70;55.40;;;;;;20768;6833;117905;-73
2022/12/02 10:36:40;;;;;;;17.87;16.10;;;8.70;55.70;;;;;;20507;6848;339046;-72
2022/12/02 10:39:19;;;;;;;18.33;16.45;;;8.70;55.70;;;;;;20519;6849;306524;-72
2022/12/02 10:41:45;;;;;;;18.42;16.65;;;9.00;55.10;;;;;;20543;6843;288535;-73
2022/12/02 10:44:18;;;;;;;17.90;16.20;;;9.20;54.90;;;;;;20482;6857;294827;-73
2022/12/02 10:46:44;;;;;;;16.60;14.90;;;9.30;54.00;;;;;;20696;6848;118439;-72
2022/12/02 10:49:33;;;;;;;15.50;13.88;;;8.80;55.00;;;;;;20733;6843;117935;-74
2022/12/02 10:51:57;;;;;;;15.37;13.87;;;8.80;55.00;;;;;;20682;6858;117510;-73
2022/12/02 10:54:23;;;;;;;18.35;16.58;;;8.50;55.60;;;;;;20470;6863;307911;-71
2022/12/02 10:56:50;;;;;;;17.10;14.97;;;8.50;55.80;;;;;;20731;6848;117511;-71
2022/12/02 10:59:15;;;;;;;13.73;12.30;;;8.50;55.80;;;;;;20737;6848;117547;-71
2022/12/02 11:01:41;;;;;;;18.65;16.77;;;8.30;56.10;;;;;;20533;6848;308189;-71
2022/12/02 11:04:07;;;;;;;15.03;13.47;;;8.30;56.20;;;;;;20722;6848;121164;-69
2022/12/02 11:06:33;;;;;;;18.10;14.63;;;8.40;56.30;;;;;;20736;6849;118023;-71
2022/12/02 11:08:58;;;;;;;17.25;15.55;;;8.20;56.70;;;;;;20550;6843;308168;-73
2022/12/02 11:11:24;;;;;;;15.88;13.98;;;8.30;56.70;;;;;;20696;6858;117426;-70
2022/12/02 11:13:56;;;;;;;13.57;12.03;;;8.40;56.90;;;;;;20743;6852;120503;-70
2022/12/02 11:16:32;;;;;;;15.83;14.30;;;8.20;56.90;;;;;;20556;6837;278656;-73
2022/12/02 11:19:08;;;;;;;14.57;13.07;;;8.40;56.50;;;;;;20700;6862;117881;-73
2022/12/02 11:21:37;;;;;;;14.57;12.50;;;8.30;56.60;;;;;;20744;6848;117330;-72
2022/12/02 11:24:22;;;;;;;18.60;16.70;;;8.20;56.80;;;;;;20465;6863;278701;-72
2022/12/02 11:27:04;;;;;;;13.60;12.03;;;8.30;56.50;;;;;;20742;6848;118535;-73
2022/12/02 11:29:43;;;;;;;18.23;15.87;;;8.20;56.30;;;;;;20503;6857;309516;-72
2022/12/02 11:32:21;;;;;;;15.47;13.67;;;8.30;56.10;;;;;;20673;6858;119036;-74
2022/12/02 11:35:01;;;;;;;15.97;13.43;;;8.20;56.20;;;;;;20699;6858;119196;-71
2022/12/02 11:37:27;;;;;;;14.77;12.40;;;8.00;56.90;;;;;;20705;6858;117334;-73
2022/12/02 11:39:56;;;;;;;16.53;14.83;;;7.90;57.60;;;;;;20475;6858;308194;-72
2022/12/02 11:42:28;;;;;;;17.00;15.37;;;8.10;57.40;;;;;;20521;6848;281489;-72
2022/12/02 11:44:54;;;;;;;17.77;15.87;;;8.40;56.20;;;;;;20468;6863;279627;-71
2022/12/02 11:47:29;;;;;;;13.97;12.37;;;8.70;55.50;;;;;;20662;6848;117825;-70
2022/12/02 11:50:08;;;;;;;16.08;14.57;;;8.70;55.60;;;;;;20499;6848;307779;-71
2022/12/02 11:52:36;;;;;;;16.93;15.33;;;9.00;55.00;;;;;;19484;6863;309578;-73
2022/12/02 11:55:01;;;;;;;15.13;13.63;;;9.00;55.00;;;;;;20725;6848;117757;-71
2022/12/02 11:57:27;;;;;;;15.87;12.50;;;8.80;55.10;;;;;;20715;6848;119436;-72
2022/12/02 11:59:53;;;;;;;15.30;12.27;;;8.60;55.70;;;;;;20694;6848;119926;-72
2022/12/02 12:02:18;;;;;;;16.13;14.57;;;8.40;56.50;;;;;;20513;6848;277288;-71
2022/12/02 12:04:44;;;;;;;15.13;13.73;;;8.50;56.20;;;;;;20524;6834;307216;-71
2022/12/02 12:07:09;;;;;;;16.67;15.07;;;8.80;55.40;;;;;;20575;6834;307320;-71
2022/12/02 12:09:37;;;;;;;15.15;13.77;;;9.20;54.30;;;;;;20573;6834;294321;-70
2022/12/02 12:12:13;;;;;;;18.53;16.63;;;9.20;54.30;;;;;;20550;6834;304498;-71
2022/12/02 12:14:51;;;;;;;13.33;11.83;;;9.40;54.10;;;;;;20761;6834;118514;-73
2022/12/02 12:17:18;;;;;;;16.67;11.97;;;8.70;55.60;;;;;;20766;6834;117962;-73
2022/12/02 12:19:45;;;;;;;14.63;13.30;;;8.80;55.00;;;;;;20523;6834;306899;-74
2022/12/02 12:22:23;;;;;;;14.53;13.03;;;8.70;55.20;;;;;;20772;6834;120120;-72
2022/12/02 12:24:49;;;;;;;14.40;12.30;;;8.70;55.40;;;;;;20782;6834;117856;-72
2022/12/02 12:27:34;;;;;;;16.37;14.65;;;8.40;55.90;;;;;;20582;6834;306430;-72
2022/12/02 12:30:00;;;;;;;14.83;13.07;;;8.50;56.20;;;;;;20768;6834;117390;-72